createdAt,value
2019-03-16T00:02:21.484Z,67.07
2019-03-16T00:04:51.337Z,66.69
2019-03-16T00:07:32.500Z,66.41
2019-03-16T00:09:56.501Z,66.31
2019-03-16T00:12:25.825Z,66.46
2019-03-16T00:14:56.186Z,66.70
2019-03-16T00:17:25.488Z,66.35
2019-03-16T00:19:54.852Z,66.70
2019-03-16T00:22:24.212Z,66.76
2019-03-16T00:24:53.580Z,66.65
2019-03-16T00:27:22.928Z,67.15
2019-03-16T00:29:52.293Z,66.57
2019-03-16T00:32:22.269Z,66.46
2019-03-16T00:34:51.624Z,66.34
2019-03-16T00:37:21.095Z,66.66
2019-03-16T00:39:50.386Z,66.82
2019-03-16T00:42:19.824Z,66.34
2019-03-16T00:44:49.756Z,66.47
2019-03-16T00:47:19.083Z,66.30
2019-03-16T00:49:48.445Z,65.80
2019-03-16T00:52:17.726Z,65.74
2019-03-16T00:54:47.148Z,65.86
2019-03-16T00:57:16.552Z,65.90
2019-03-16T00:59:45.889Z,66.04
2019-03-16T01:02:26.552Z,65.84
2019-03-16T01:04:44.688Z,65.96
2019-03-16T01:07:13.960Z,65.73
2019-03-16T01:09:46.190Z,65.47
2019-03-16T01:12:15.545Z,65.17
2019-03-16T01:14:44.823Z,65.39
2019-03-16T01:17:14.157Z,65.54
2019-03-16T01:19:43.773Z,65.08
2019-03-16T01:22:13.216Z,64.95
2019-03-16T01:24:43.639Z,65.03
2019-03-16T01:27:12.957Z,64.99
2019-03-16T01:29:42.324Z,64.96
2019-03-16T01:32:11.685Z,65.19
2019-03-16T01:34:44.007Z,65.07
2019-03-16T01:37:10.464Z,65.78
2019-03-16T01:39:39.773Z,65.40
2019-03-16T01:42:09.140Z,65.46
2019-03-16T01:44:38.494Z,65.39
2019-03-16T01:47:07.961Z,65.45
2019-03-16T01:49:38.254Z,65.55
2019-03-16T01:52:07.530Z,65.16
2019-03-16T01:54:37.011Z,65.62
2019-03-16T01:57:06.361Z,65.92
2019-03-16T01:59:35.751Z,65.69
2019-03-16T02:02:05.181Z,65.16
2019-03-16T02:04:34.483Z,65.62
2019-03-16T02:07:03.908Z,65.12
2019-03-16T02:09:33.236Z,65.25
2019-03-16T02:12:02.569Z,65.43
2019-03-16T02:14:31.940Z,64.90
2019-03-16T02:17:01.334Z,64.72
2019-03-16T02:19:31.665Z,65.12
2019-03-16T02:22:01.126Z,65.04
2019-03-16T02:24:31.447Z,65.41
2019-03-16T02:27:00.759Z,65.12
2019-03-16T02:29:30.723Z,65.13
2019-03-16T02:32:00.079Z,65.37
2019-03-16T02:34:29.464Z,64.85
2019-03-16T02:36:59.093Z,64.78
2019-03-16T02:39:28.517Z,65.44
2019-03-16T02:41:58.005Z,65.02
2019-03-16T02:44:27.375Z,65.26
2019-03-16T02:46:56.730Z,65.21
2019-03-16T02:49:26.049Z,65.10
2019-03-16T02:51:55.444Z,64.99
2019-03-16T02:54:24.797Z,64.94
2019-03-16T02:56:54.800Z,65.24
2019-03-16T02:59:24.126Z,64.65
2019-03-16T03:01:53.439Z,64.85
2019-03-16T03:04:22.752Z,65.10
2019-03-16T03:06:52.089Z,64.82
2019-03-16T03:09:21.988Z,64.75
2019-03-16T03:11:51.343Z,65.10
2019-03-16T03:14:20.679Z,64.67
2019-03-16T03:16:51.354Z,64.63
2019-03-16T03:19:20.736Z,64.28
2019-03-16T03:21:50.146Z,64.25
2019-03-16T03:24:20.492Z,64.61
2019-03-16T03:26:49.828Z,64.39
2019-03-16T03:29:19.324Z,64.03
2019-03-16T03:31:49.241Z,64.46
2019-03-16T03:40:18.376Z,63.63
2019-03-16T03:42:48.088Z,63.52
2019-03-16T03:45:17.585Z,63.81
2019-03-16T03:47:46.956Z,63.80
2019-03-16T03:50:16.320Z,63.82
2019-03-16T03:52:45.937Z,64.35
2019-03-16T03:55:15.336Z,64.81
2019-03-16T03:57:44.636Z,64.92
2019-03-16T04:00:14.219Z,64.89
2019-03-16T04:02:43.565Z,64.83
2019-03-16T04:05:12.997Z,65.80
2019-03-16T04:07:42.472Z,66.35
2019-03-16T04:10:11.867Z,66.95
2019-03-16T04:12:41.189Z,67.00
2019-03-16T04:15:10.665Z,67.06
2019-03-16T04:17:40.897Z,66.91
2019-03-16T04:20:10.417Z,67.41
2019-03-16T04:22:39.742Z,67.37
2019-03-16T04:25:09.156Z,67.89
2019-03-16T04:27:38.487Z,67.22
2019-03-16T04:30:07.929Z,66.01
2019-03-16T04:32:37.248Z,64.87
2019-03-16T04:35:06.741Z,64.54
2019-03-16T04:37:36.143Z,63.96
2019-03-16T04:40:05.591Z,63.65
2019-03-16T04:42:34.877Z,63.70
2019-03-16T04:45:04.361Z,63.92
2019-03-16T04:47:33.638Z,63.55
2019-03-16T04:50:02.994Z,63.24
2019-03-16T04:52:33.585Z,63.31
2019-03-16T04:55:03.942Z,63.25
2019-03-16T04:57:33.308Z,63.03
2019-03-16T05:00:02.812Z,62.71
2019-03-16T05:02:32.157Z,63.03
2019-03-16T05:05:01.540Z,62.33
2019-03-16T05:07:32.616Z,62.51
2019-03-16T05:10:02.087Z,62.42
2019-03-16T05:12:32.359Z,62.62
2019-03-16T05:15:01.996Z,62.78
2019-03-16T05:17:31.473Z,62.50
2019-03-16T05:20:00.820Z,62.45
2019-03-16T05:22:30.188Z,62.19
2019-03-16T05:24:59.550Z,62.43
2019-03-16T05:27:29.967Z,62.63
2019-03-16T05:29:59.328Z,62.87
2019-03-16T05:32:28.645Z,62.88
2019-03-16T05:34:57.934Z,62.95
2019-03-16T05:37:27.253Z,62.93
2019-03-16T05:39:56.632Z,62.93
2019-03-16T05:42:25.944Z,63.24
2019-03-16T05:44:56.255Z,62.81
2019-03-16T05:47:25.646Z,63.07
2019-03-16T05:49:54.947Z,62.93
2019-03-16T05:52:24.280Z,62.74
2019-03-16T05:54:53.609Z,63.18
2019-03-16T05:57:22.984Z,62.78
2019-03-16T05:59:52.326Z,62.50
2019-03-16T06:02:22.496Z,62.36
2019-03-16T06:04:51.872Z,62.14
2019-03-16T06:07:21.152Z,62.32
2019-03-16T06:09:50.449Z,61.94
2019-03-16T06:12:19.853Z,61.95
2019-03-16T06:14:49.345Z,61.98
2019-03-16T06:17:18.704Z,61.71
2019-03-16T06:19:48.020Z,62.30
2019-03-16T06:22:17.356Z,62.92
2019-03-16T06:24:46.769Z,62.79
2019-03-16T06:27:16.072Z,63.33
2019-03-16T06:29:46.274Z,64.16
2019-03-16T06:32:15.763Z,65.12
2019-03-16T06:34:46.686Z,65.52
2019-03-16T06:37:17.014Z,66.17
2019-03-16T06:39:46.990Z,67.35
2019-03-16T06:42:16.299Z,68.02
2019-03-16T06:44:46.181Z,68.41
2019-03-16T06:47:16.024Z,68.66
2019-03-16T06:49:45.501Z,69.46
2019-03-16T06:52:14.778Z,70.08
2019-03-16T06:54:44.099Z,70.15
2019-03-16T06:57:13.420Z,70.44
2019-03-16T06:59:42.759Z,70.46
2019-03-16T07:02:12.077Z,70.55
2019-03-16T07:04:41.364Z,70.08
2019-03-16T07:07:10.747Z,69.87
2019-03-16T07:09:40.140Z,69.19
2019-03-16T07:12:09.439Z,68.96
2019-03-16T07:14:38.835Z,68.45
2019-03-16T07:17:08.307Z,68.59
2019-03-16T07:19:37.626Z,67.57
2019-03-16T07:22:07.012Z,67.33
2019-03-16T07:24:37.316Z,67.57
2019-03-16T07:27:06.669Z,66.76
2019-03-16T07:29:36.036Z,66.57
2019-03-16T07:32:05.352Z,66.41
2019-03-16T07:34:34.738Z,65.67
2019-03-16T07:37:04.084Z,65.65
2019-03-16T07:39:33.428Z,65.87
2019-03-16T07:42:02.851Z,65.58
2019-03-16T07:44:33.017Z,65.23
2019-03-16T07:47:02.344Z,65.62
2019-03-16T07:49:31.719Z,65.16
2019-03-16T07:52:01.068Z,65.04
2019-03-16T07:54:31.337Z,65.00
2019-03-16T07:57:00.500Z,64.45
2019-03-16T07:59:29.821Z,64.29
2019-03-16T08:01:59.128Z,64.57
2019-03-16T08:04:28.541Z,64.36
2019-03-16T08:06:57.846Z,64.04
2019-03-16T08:09:27.193Z,64.29
2019-03-16T08:11:56.652Z,64.08
2019-03-16T08:14:26.008Z,64.23
2019-03-16T08:16:56.472Z,63.60
2019-03-16T08:19:25.790Z,63.68
2019-03-16T08:21:55.947Z,63.70
2019-03-16T08:24:25.749Z,63.66
2019-03-16T08:26:55.067Z,63.83
2019-03-16T08:29:24.443Z,63.62
2019-03-16T08:31:53.724Z,63.61
2019-03-16T08:34:23.040Z,62.98
2019-03-16T08:36:52.377Z,63.26
2019-03-16T08:39:21.675Z,63.46
2019-03-16T08:41:51.006Z,63.22
2019-03-16T08:44:20.474Z,63.36
2019-03-16T08:46:49.867Z,63.27
2019-03-16T08:49:19.208Z,63.11
2019-03-16T08:51:48.550Z,63.18
2019-03-16T08:54:17.925Z,62.90
2019-03-16T08:56:47.242Z,62.80
2019-03-16T08:59:16.629Z,62.55
2019-03-16T09:01:46.738Z,62.39
2019-03-16T09:04:16.039Z,62.84
2019-03-16T09:06:45.321Z,62.11
2019-03-16T09:09:14.814Z,61.52
2019-03-16T09:11:44.380Z,61.08
2019-03-16T09:14:14.473Z,60.91
2019-03-16T09:16:44.001Z,61.06
2019-03-16T09:19:13.367Z,60.89
2019-03-16T09:21:43.211Z,60.70
2019-03-16T09:24:12.586Z,60.46
2019-03-16T09:26:41.931Z,59.57
2019-03-16T09:29:15.251Z,59.48
2019-03-16T09:31:40.568Z,58.97
2019-03-16T09:34:09.869Z,58.67
2019-03-16T09:36:39.192Z,58.87
2019-03-16T09:39:09.177Z,58.93
2019-03-16T09:41:38.467Z,58.73
2019-03-16T09:44:07.755Z,59.32
2019-03-16T09:46:38.097Z,58.91
2019-03-16T09:49:07.416Z,59.28
2019-03-16T09:51:36.744Z,59.14
2019-03-16T09:54:06.627Z,58.98
2019-03-16T09:56:36.003Z,58.30
2019-03-16T09:59:05.472Z,58.55
2019-03-16T10:01:34.828Z,58.32
2019-03-16T10:04:04.206Z,58.33
2019-03-16T10:06:33.516Z,58.61
2019-03-16T10:09:02.798Z,58.41
2019-03-16T10:11:32.118Z,58.64
2019-03-16T10:14:07.631Z,58.89
2019-03-16T10:16:37.620Z,58.77
2019-03-16T10:19:06.997Z,58.88
2019-03-16T10:21:36.415Z,58.94
2019-03-16T10:24:12.285Z,59.29
2019-03-16T10:26:41.679Z,58.67
2019-03-16T10:29:11.069Z,58.31
2019-03-16T10:31:40.385Z,58.90
2019-03-16T10:34:09.712Z,58.78
2019-03-16T10:36:39.349Z,59.31
2019-03-16T10:39:09.727Z,59.04
2019-03-16T10:41:39.941Z,59.14
2019-03-16T10:44:09.336Z,59.07
2019-03-16T10:46:38.668Z,59.12
2019-03-16T10:49:08.037Z,59.30
2019-03-16T10:51:37.514Z,59.04
2019-03-16T10:54:06.860Z,59.15
2019-03-16T10:56:36.232Z,59.05
2019-03-16T10:59:05.516Z,59.14
2019-03-16T11:01:34.877Z,59.92
2019-03-16T11:04:04.172Z,60.24
2019-03-16T11:06:33.497Z,61.08
2019-03-16T11:09:02.829Z,62.40
2019-03-16T11:11:32.180Z,63.74
2019-03-16T11:14:01.575Z,64.44
2019-03-16T11:16:30.940Z,64.58
2019-03-16T11:19:00.316Z,64.96
2019-03-16T11:21:31.799Z,65.95
2019-03-16T11:24:01.209Z,66.43
2019-03-16T11:26:30.605Z,66.66
2019-03-16T11:29:08.541Z,67.76
2019-03-16T11:31:29.303Z,68.84
2019-03-16T11:33:58.628Z,69.22
2019-03-16T11:36:28.487Z,69.65
2019-03-16T11:38:57.842Z,69.15
2019-03-16T11:41:27.179Z,68.17
2019-03-16T11:43:57.184Z,67.31
2019-03-16T11:46:27.396Z,66.30
2019-03-16T11:48:56.743Z,65.51
2019-03-16T11:51:26.115Z,63.86
2019-03-16T11:53:55.553Z,62.77
2019-03-16T11:56:24.928Z,63.04
2019-03-16T11:58:54.328Z,61.59
2019-03-16T12:01:23.718Z,60.33
2019-03-16T12:03:53.055Z,59.33
2019-03-16T12:06:22.340Z,59.46
2019-03-16T12:08:52.200Z,59.21
2019-03-16T12:11:21.494Z,58.79
2019-03-16T12:13:50.793Z,58.46
2019-03-16T12:16:20.058Z,57.55
2019-03-16T12:18:49.499Z,57.53
2019-03-16T12:21:18.856Z,56.75
2019-03-16T12:23:48.501Z,56.50
2019-03-16T12:26:20.189Z,56.13
2019-03-16T12:28:47.991Z,55.65
2019-03-16T12:31:17.356Z,55.38
2019-03-16T12:33:47.676Z,55.64
2019-03-16T12:36:17.036Z,55.67
2019-03-16T12:38:46.428Z,55.70
2019-03-16T12:41:15.971Z,56.92
2019-03-16T12:43:45.216Z,55.96
2019-03-16T12:46:15.179Z,56.69
2019-03-16T12:48:44.529Z,56.85
2019-03-16T12:51:13.905Z,55.85
2019-03-16T12:53:43.248Z,55.93
2019-03-16T12:56:12.700Z,55.67
2019-03-16T12:58:42.117Z,55.52
2019-03-16T13:01:12.667Z,54.33
2019-03-16T13:03:40.776Z,53.07
2019-03-16T13:06:10.107Z,52.24
2019-03-16T13:08:39.438Z,51.68
2019-03-16T13:11:08.779Z,51.90
2019-03-16T13:13:38.153Z,51.85
2019-03-16T13:16:07.496Z,51.58
2019-03-16T13:18:36.875Z,51.40
2019-03-16T13:21:06.228Z,51.55
2019-03-16T13:23:35.549Z,52.12
2019-03-16T13:26:04.989Z,53.00
2019-03-16T13:28:35.699Z,53.46
2019-03-16T13:31:04.285Z,53.98
2019-03-16T13:33:33.576Z,54.27
2019-03-16T13:36:02.932Z,54.28
2019-03-16T13:38:32.198Z,54.13
2019-03-16T13:41:01.624Z,53.55
2019-03-16T13:43:30.938Z,52.81
2019-03-16T13:46:00.234Z,52.97
2019-03-16T13:48:29.736Z,51.49
2019-03-16T13:50:59.013Z,51.65
2019-03-16T13:53:28.393Z,52.04
2019-03-16T13:55:57.765Z,52.10
2019-03-16T13:58:27.166Z,51.46
2019-03-16T14:00:57.480Z,52.24
2019-03-16T14:03:27.008Z,53.42
2019-03-16T14:05:57.142Z,53.85
2019-03-16T14:08:26.563Z,54.99
2019-03-16T14:10:55.896Z,54.38
2019-03-16T14:13:25.197Z,54.30
2019-03-16T14:15:54.559Z,54.05
2019-03-16T14:18:24.608Z,53.74
2019-03-16T14:20:53.981Z,53.40
2019-03-16T14:23:23.290Z,53.12
2019-03-16T14:25:52.595Z,52.80
2019-03-16T14:28:21.912Z,52.91
2019-03-16T14:30:51.286Z,52.54
2019-03-16T14:33:20.772Z,53.17
2019-03-16T14:35:50.072Z,52.79
2019-03-16T14:38:19.383Z,53.19
2019-03-16T14:40:48.722Z,52.95
2019-03-16T14:43:17.991Z,52.95
2019-03-16T14:45:48.979Z,53.46
2019-03-16T14:48:17.376Z,53.42
2019-03-16T14:50:46.767Z,53.62
2019-03-16T14:53:16.060Z,53.69
2019-03-16T14:55:45.416Z,53.72
2019-03-16T14:58:14.878Z,52.07
2019-03-16T15:00:44.197Z,51.00
2019-03-16T15:03:13.930Z,50.32
2019-03-16T15:05:45.812Z,50.22
2019-03-16T15:08:12.697Z,50.80
2019-03-16T15:10:42.004Z,50.81
2019-03-16T15:13:11.382Z,50.70
2019-03-16T15:15:40.789Z,50.52
2019-03-16T15:18:10.231Z,50.04
2019-03-16T15:20:39.644Z,50.91
2019-03-16T15:23:09.262Z,50.42
2019-03-16T15:25:38.593Z,51.38
2019-03-16T15:28:07.892Z,51.26
2019-03-16T15:30:49.827Z,51.57
2019-03-16T15:33:06.558Z,51.56
2019-03-16T15:35:35.952Z,51.22
2019-03-16T15:38:05.439Z,51.10
2019-03-16T15:40:34.768Z,50.81
2019-03-16T15:43:04.345Z,50.81
2019-03-16T15:45:33.729Z,50.91
2019-03-16T15:48:03.051Z,50.84
2019-03-16T15:50:33.437Z,50.75
2019-03-16T15:53:03.676Z,51.24
2019-03-16T15:55:33.104Z,51.54
2019-03-16T15:58:07.845Z,51.43
2019-03-16T16:00:31.812Z,51.58
2019-03-16T16:03:01.125Z,51.29
2019-03-16T16:05:30.996Z,50.79
2019-03-16T16:08:00.412Z,50.72
2019-03-16T16:10:29.743Z,51.05
2019-03-16T16:12:59.069Z,51.26
2019-03-16T16:15:28.405Z,50.77
2019-03-16T16:17:57.886Z,51.29
2019-03-16T16:20:27.225Z,50.80
2019-03-16T16:22:56.573Z,51.00
2019-03-16T16:25:25.917Z,51.34
2019-03-16T16:27:55.240Z,50.98
2019-03-16T16:30:24.573Z,50.94
2019-03-16T16:32:53.945Z,51.45
2019-03-16T16:35:23.296Z,51.18
2019-03-16T16:37:52.675Z,50.92
2019-03-16T16:40:22.095Z,51.57
2019-03-16T16:42:51.446Z,51.62
2019-03-16T16:45:20.802Z,51.45
2019-03-16T16:47:50.144Z,51.85
2019-03-16T16:50:19.442Z,52.06
2019-03-16T16:52:48.853Z,51.80
2019-03-16T16:55:18.248Z,52.57
2019-03-16T16:57:47.602Z,52.54
2019-03-16T17:00:17.437Z,52.13
2019-03-16T17:02:46.741Z,52.28
2019-03-16T17:05:16.211Z,52.46
2019-03-16T17:07:45.494Z,52.97
2019-03-16T17:10:15.851Z,52.87
2019-03-16T17:12:45.258Z,52.73
2019-03-16T17:15:14.642Z,52.59
2019-03-16T17:17:44.978Z,53.09
2019-03-16T17:20:14.398Z,53.19
2019-03-16T17:22:44.481Z,53.11
2019-03-16T17:25:13.855Z,53.35
2019-03-16T17:27:43.356Z,53.70
2019-03-16T17:30:15.765Z,53.31
2019-03-16T17:32:45.617Z,53.90
2019-03-16T17:35:14.984Z,53.91
2019-03-16T17:37:44.305Z,53.38
2019-03-16T17:40:13.920Z,53.68
2019-03-16T17:42:43.836Z,53.56
2019-03-16T17:45:13.222Z,53.41
2019-03-16T17:47:43.453Z,53.73
2019-03-16T17:50:12.893Z,53.61
2019-03-16T17:52:42.287Z,54.13
2019-03-16T17:55:11.897Z,54.01
2019-03-16T17:57:41.276Z,53.71
2019-03-16T18:00:12.454Z,53.53
2019-03-16T18:02:51.441Z,54.07
2019-03-16T18:05:11.234Z,53.87
2019-03-16T18:07:40.585Z,53.76
2019-03-16T18:10:10.628Z,54.04
2019-03-16T18:12:40.086Z,56.93
2019-03-16T18:15:12.062Z,57.41
2019-03-16T18:17:41.183Z,57.29
2019-03-16T18:20:13.645Z,55.73
2019-03-16T18:22:43.084Z,54.58
2019-03-16T18:25:12.496Z,54.33
2019-03-16T18:27:42.868Z,54.04
2019-03-16T18:30:14.344Z,54.46
2019-03-16T18:32:43.746Z,54.19
2019-03-16T18:35:13.089Z,54.44
2019-03-16T18:37:42.462Z,54.49
2019-03-16T18:40:12.292Z,54.24
2019-03-16T18:42:42.263Z,54.07
2019-03-16T18:45:14.228Z,54.21
2019-03-16T18:47:44.864Z,54.49
2019-03-16T18:50:14.191Z,54.26
2019-03-16T18:52:43.626Z,54.73
2019-03-16T18:55:13.104Z,54.42
2019-03-16T18:57:43.067Z,54.87
2019-03-16T19:00:13.592Z,55.20
2019-03-16T19:02:42.948Z,54.95
2019-03-16T19:05:12.367Z,55.12
2019-03-16T19:07:41.690Z,54.85
2019-03-16T19:10:11.877Z,54.88
2019-03-16T19:12:41.259Z,55.24
2019-03-16T19:15:13.037Z,56.12
2019-03-16T19:17:42.472Z,56.13
2019-03-16T19:20:12.664Z,56.00
2019-03-16T19:22:42.492Z,55.82
2019-03-16T19:25:13.472Z,56.24
2019-03-16T19:27:42.907Z,57.25
2019-03-16T19:30:14.138Z,55.89
2019-03-16T19:32:43.943Z,56.05
2019-03-16T19:35:13.473Z,56.72
2019-03-16T19:37:42.795Z,56.81
2019-03-16T19:40:12.345Z,56.80
2019-03-16T19:42:41.788Z,56.84
2019-03-16T19:45:11.318Z,56.71
2019-03-16T19:47:40.664Z,56.68
2019-03-16T19:50:10.883Z,57.15
2019-03-16T19:52:40.190Z,56.89
2019-03-16T19:55:09.835Z,56.08
2019-03-16T19:57:39.202Z,55.93
2019-03-16T20:00:11.398Z,56.25
2019-03-16T20:02:47.187Z,55.74
2019-03-16T20:05:10.344Z,55.83
2019-03-16T20:07:39.677Z,55.95
2019-03-16T20:10:10.841Z,56.18
2019-03-16T20:12:40.224Z,56.25
2019-03-16T20:15:10.190Z,56.09
2019-03-16T20:17:39.559Z,56.15
2019-03-16T20:20:09.742Z,56.52
2019-03-16T20:22:39.802Z,56.30
2019-03-16T20:25:09.266Z,56.08
2019-03-16T20:27:38.802Z,56.22
2019-03-16T20:30:09.189Z,56.21
2019-03-16T20:32:38.445Z,55.92
2019-03-16T20:35:07.939Z,56.47
2019-03-16T20:37:37.441Z,56.08
2019-03-16T20:40:08.970Z,55.84
2019-03-16T20:42:38.323Z,56.63
2019-03-16T20:45:07.836Z,56.52
2019-03-16T20:47:37.205Z,56.52
2019-03-16T20:50:07.674Z,56.45
2019-03-16T20:52:37.072Z,56.76
2019-03-16T20:55:07.278Z,56.46
2019-03-16T20:57:36.612Z,56.36
2019-03-16T21:00:06.927Z,56.98
2019-03-16T21:02:36.319Z,56.86
2019-03-16T21:05:06.863Z,56.73
2019-03-16T21:07:36.829Z,57.17
2019-03-16T21:10:07.290Z,57.17
2019-03-16T21:12:36.624Z,57.33
2019-03-16T21:15:07.467Z,57.30
2019-03-16T21:17:36.815Z,57.32
2019-03-16T21:20:07.823Z,57.13
2019-03-16T21:22:39.125Z,57.50
2019-03-16T21:25:07.175Z,57.39
2019-03-16T21:27:36.430Z,57.63
2019-03-16T21:30:07.663Z,57.35
2019-03-16T21:32:36.873Z,57.60
2019-03-16T21:35:06.457Z,57.31
2019-03-16T21:37:35.860Z,57.52
2019-03-16T21:40:06.224Z,57.71
2019-03-16T21:42:35.575Z,57.83
2019-03-16T21:45:05.248Z,57.91
2019-03-16T21:47:34.589Z,57.88
2019-03-16T21:50:04.226Z,58.36
2019-03-16T21:52:33.686Z,58.00
2019-03-16T21:55:03.127Z,57.98
2019-03-16T21:57:34.603Z,58.13
2019-03-16T22:00:04.596Z,58.33
2019-03-16T22:02:34.013Z,58.40
2019-03-16T22:05:03.368Z,58.35
2019-03-16T22:07:32.732Z,58.41
2019-03-16T22:10:01.995Z,58.51
2019-03-16T22:12:31.582Z,58.37
2019-03-16T22:15:00.860Z,58.48
2019-03-16T22:17:30.184Z,58.42
2019-03-16T22:19:59.476Z,58.28
2019-03-16T22:22:29.117Z,58.75
2019-03-16T22:24:58.556Z,58.55
2019-03-16T22:27:28.210Z,58.69
2019-03-16T22:29:58.588Z,58.82
2019-03-16T22:32:27.880Z,58.66
2019-03-16T22:34:57.308Z,58.81
2019-03-16T22:37:27.131Z,58.42
2019-03-16T22:39:57.140Z,58.61
2019-03-16T22:42:26.513Z,58.32
2019-03-16T22:44:55.866Z,57.98
2019-03-16T22:47:25.188Z,58.55
2019-03-16T22:49:54.511Z,58.34
2019-03-16T22:52:23.875Z,57.95
2019-03-16T22:54:53.516Z,58.08
2019-03-16T22:57:22.828Z,58.04
2019-03-16T22:59:52.436Z,57.62
2019-03-16T23:02:21.840Z,57.99
2019-03-16T23:04:52.185Z,57.83
2019-03-16T23:07:21.548Z,57.88
2019-03-16T23:09:50.864Z,58.03
2019-03-16T23:12:20.452Z,58.29
2019-03-16T23:14:50.460Z,57.71
2019-03-16T23:17:19.807Z,57.78
2019-03-16T23:19:49.578Z,57.75
2019-03-16T23:22:18.966Z,57.54
2019-03-16T23:24:48.340Z,57.57
2019-03-16T23:27:17.683Z,57.48
2019-03-16T23:29:46.967Z,57.42
2019-03-16T23:32:16.256Z,57.18
2019-03-16T23:34:45.555Z,57.23
2019-03-16T23:37:15.489Z,56.96
2019-03-16T23:39:44.793Z,56.57
2019-03-16T23:42:14.171Z,56.41
2019-03-16T23:44:43.528Z,56.63
2019-03-16T23:47:12.814Z,56.57
2019-03-16T23:49:42.659Z,56.75
2019-03-16T23:52:11.975Z,56.81
2019-03-16T23:54:41.336Z,56.34
2019-03-16T23:57:10.651Z,56.07
2019-03-16T23:59:39.932Z,56.23
